sensor_id;sensor_type;location;lat;lon;timestamp;P1;durP1;ratioP1;P2;durP2;ratioP2
28960;SDS011;16068;42.896;20.868;2022-07-24T00:00:29;12.65;;;6.30;;
28960;SDS011;16068;42.896;20.868;2022-07-24T00:03:16;14.10;;;6.07;;
28960;SDS011;16068;42.896;20.868;2022-07-24T00:06:06;16.08;;;5.43;;
28960;SDS011;16068;42.896;20.868;2022-07-24T00:08:52;15.73;;;6.28;;
28960;SDS011;16068;42.896;20.868;2022-07-24T00:11:38;13.20;;;6.05;;
28960;SDS011;16068;42.896;20.868;2022-07-24T00:14:25;16.27;;;5.53;;
28960;SDS011;16068;42.896;20.868;2022-07-24T00:17:11;10.00;;;5.30;;
28960;SDS011;16068;42.896;20.868;2022-07-24T00:19:57;13.50;;;5.78;;
28960;SDS011;16068;42.896;20.868;2022-07-24T00:22:43;16.08;;;5.25;;
28960;SDS011;16068;42.896;20.868;2022-07-24T00:25:29;14.02;;;5.70;;
28960;SDS011;16068;42.896;20.868;2022-07-24T00:28:15;20.05;;;5.13;;
28960;SDS011;16068;42.896;20.868;2022-07-24T00:31:01;11.25;;;5.68;;
28960;SDS011;16068;42.896;20.868;2022-07-24T00:33:47;16.58;;;6.03;;
28960;SDS011;16068;42.896;20.868;2022-07-24T00:36:34;12.75;;;5.35;;
28960;SDS011;16068;42.896;20.868;2022-07-24T00:39:20;15.38;;;5.80;;
28960;SDS011;16068;42.896;20.868;2022-07-24T00:42:05;12.45;;;5.40;;
28960;SDS011;16068;42.896;20.868;2022-07-24T00:44:52;14.57;;;5.80;;
28960;SDS011;16068;42.896;20.868;2022-07-24T00:47:38;26.23;;;5.85;;
28960;SDS011;16068;42.896;20.868;2022-07-24T00:50:25;10.55;;;5.47;;
28960;SDS011;16068;42.896;20.868;2022-07-24T00:53:11;12.95;;;5.38;;
28960;SDS011;16068;42.896;20.868;2022-07-24T00:55:57;10.85;;;5.40;;
28960;SDS011;16068;42.896;20.868;2022-07-24T00:58:44;14.88;;;5.70;;
28960;SDS011;16068;42.896;20.868;2022-07-24T01:01:32;16.50;;;5.63;;
28960;SDS011;16068;42.896;20.868;2022-07-24T01:04:27;14.77;;;6.00;;
28960;SDS011;16068;42.896;20.868;2022-07-24T01:07:52;11.05;;;5.63;;
28960;SDS011;16068;42.896;20.868;2022-07-24T01:10:38;10.32;;;5.53;;
28960;SDS011;16068;42.896;20.868;2022-07-24T01:13:24;11.20;;;5.38;;
28960;SDS011;16068;42.896;20.868;2022-07-24T01:16:10;21.35;;;5.82;;
28960;SDS011;16068;42.896;20.868;2022-07-24T01:18:56;11.73;;;5.32;;
28960;SDS011;16068;42.896;20.868;2022-07-24T01:21:46;11.68;;;5.60;;
28960;SDS011;16068;42.896;20.868;2022-07-24T01:24:34;13.75;;;5.50;;
28960;SDS011;16068;42.896;20.868;2022-07-24T01:27:20;21.52;;;5.72;;
28960;SDS011;16068;42.896;20.868;2022-07-24T01:30:07;14.80;;;5.60;;
28960;SDS011;16068;42.896;20.868;2022-07-24T01:32:54;13.27;;;5.65;;
28960;SDS011;16068;42.896;20.868;2022-07-24T01:35:40;21.48;;;5.88;;
28960;SDS011;16068;42.896;20.868;2022-07-24T01:38:27;16.35;;;5.55;;
28960;SDS011;16068;42.896;20.868;2022-07-24T01:41:13;15.57;;;5.88;;
28960;SDS011;16068;42.896;20.868;2022-07-24T01:43:59;11.55;;;5.40;;
28960;SDS011;16068;42.896;20.868;2022-07-24T01:46:45;20.85;;;5.72;;
28960;SDS011;16068;42.896;20.868;2022-07-24T01:49:31;15.55;;;5.50;;
28960;SDS011;16068;42.896;20.868;2022-07-24T01:52:17;11.90;;;5.72;;
28960;SDS011;16068;42.896;20.868;2022-07-24T01:55:03;16.58;;;5.70;;
28960;SDS011;16068;42.896;20.868;2022-07-24T01:57:50;19.83;;;5.28;;
28960;SDS011;16068;42.896;20.868;2022-07-24T02:00:36;16.30;;;6.18;;
28960;SDS011;16068;42.896;20.868;2022-07-24T02:03:24;14.65;;;6.05;;
28960;SDS011;16068;42.896;20.868;2022-07-24T02:06:10;11.05;;;5.20;;
28960;SDS011;16068;42.896;20.868;2022-07-24T02:08:56;13.00;;;5.75;;
28960;SDS011;16068;42.896;20.868;2022-07-24T02:11:42;14.00;;;6.63;;
28960;SDS011;16068;42.896;20.868;2022-07-24T02:14:28;14.05;;;6.07;;
28960;SDS011;16068;42.896;20.868;2022-07-24T02:17:14;20.10;;;5.97;;
28960;SDS011;16068;42.896;20.868;2022-07-24T02:19:59;14.88;;;6.40;;
28960;SDS011;16068;42.896;20.868;2022-07-24T02:22:46;13.15;;;5.70;;
28960;SDS011;16068;42.896;20.868;2022-07-24T02:25:32;13.32;;;6.18;;
28960;SDS011;16068;42.896;20.868;2022-07-24T02:28:18;15.13;;;6.18;;
28960;SDS011;16068;42.896;20.868;2022-07-24T02:31:04;11.25;;;5.68;;
28960;SDS011;16068;42.896;20.868;2022-07-24T02:33:50;12.05;;;5.18;;
28960;SDS011;16068;42.896;20.868;2022-07-24T02:36:36;12.77;;;5.53;;
28960;SDS011;16068;42.896;20.868;2022-07-24T02:39:22;11.88;;;5.60;;
28960;SDS011;16068;42.896;20.868;2022-07-24T02:42:08;20.33;;;5.97;;
28960;SDS011;16068;42.896;20.868;2022-07-24T02:44:54;11.18;;;5.50;;
28960;SDS011;16068;42.896;20.868;2022-07-24T02:47:47;10.38;;;5.47;;
28960;SDS011;16068;42.896;20.868;2022-07-24T02:50:35;19.55;;;6.28;;
28960;SDS011;16068;42.896;20.868;2022-07-24T02:53:21;13.52;;;5.57;;
28960;SDS011;16068;42.896;20.868;2022-07-24T02:56:07;12.55;;;5.93;;
28960;SDS011;16068;42.896;20.868;2022-07-24T02:58:54;11.73;;;6.30;;
28960;SDS011;16068;42.896;20.868;2022-07-24T03:01:39;36.28;;;8.30;;
28960;SDS011;16068;42.896;20.868;2022-07-24T03:04:26;28.33;;;7.47;;
28960;SDS011;16068;42.896;20.868;2022-07-24T03:07:12;32.45;;;9.40;;
28960;SDS011;16068;42.896;20.868;2022-07-24T03:09:58;16.75;;;5.80;;
28960;SDS011;16068;42.896;20.868;2022-07-24T03:12:44;25.17;;;6.70;;
28960;SDS011;16068;42.896;20.868;2022-07-24T03:15:30;35.40;;;7.88;;
28960;SDS011;16068;42.896;20.868;2022-07-24T03:18:16;13.77;;;6.03;;
28960;SDS011;16068;42.896;20.868;2022-07-24T03:21:07;14.25;;;5.80;;
28960;SDS011;16068;42.896;20.868;2022-07-24T03:24:13;19.48;;;6.95;;
28960;SDS011;16068;42.896;20.868;2022-07-24T03:26:59;65.55;;;16.42;;
28960;SDS011;16068;42.896;20.868;2022-07-24T03:29:45;38.10;;;12.10;;
28960;SDS011;16068;42.896;20.868;2022-07-24T03:32:31;33.20;;;9.35;;
28960;SDS011;16068;42.896;20.868;2022-07-24T03:35:18;32.17;;;7.78;;
28960;SDS011;16068;42.896;20.868;2022-07-24T03:38:04;18.75;;;6.32;;
28960;SDS011;16068;42.896;20.868;2022-07-24T03:40:49;21.88;;;7.00;;
28960;SDS011;16068;42.896;20.868;2022-07-24T03:43:35;20.00;;;6.47;;
28960;SDS011;16068;42.896;20.868;2022-07-24T03:46:21;17.77;;;7.03;;
28960;SDS011;16068;42.896;20.868;2022-07-24T03:49:07;37.83;;;8.10;;
28960;SDS011;16068;42.896;20.868;2022-07-24T03:51:54;24.50;;;7.68;;
28960;SDS011;16068;42.896;20.868;2022-07-24T03:54:40;17.17;;;6.80;;
28960;SDS011;16068;42.896;20.868;2022-07-24T03:57:26;35.05;;;7.32;;
28960;SDS011;16068;42.896;20.868;2022-07-24T04:00:12;18.00;;;5.78;;
28960;SDS011;16068;42.896;20.868;2022-07-24T04:02:58;18.40;;;6.15;;
28960;SDS011;16068;42.896;20.868;2022-07-24T04:05:44;25.10;;;6.25;;
28960;SDS011;16068;42.896;20.868;2022-07-24T04:08:37;19.85;;;7.28;;
28960;SDS011;16068;42.896;20.868;2022-07-24T04:11:23;19.75;;;6.78;;
28960;SDS011;16068;42.896;20.868;2022-07-24T04:14:10;15.57;;;6.07;;
28960;SDS011;16068;42.896;20.868;2022-07-24T04:16:55;13.90;;;5.65;;
28960;SDS011;16068;42.896;20.868;2022-07-24T04:19:42;18.10;;;5.90;;
28960;SDS011;16068;42.896;20.868;2022-07-24T04:22:29;19.20;;;7.78;;
28960;SDS011;16068;42.896;20.868;2022-07-24T04:25:15;16.83;;;5.60;;
28960;SDS011;16068;42.896;20.868;2022-07-24T04:28:01;16.33;;;6.18;;
28960;SDS011;16068;42.896;20.868;2022-07-24T04:30:47;14.35;;;5.85;;
28960;SDS011;16068;42.896;20.868;2022-07-24T04:33:33;13.05;;;5.40;;
28960;SDS011;16068;42.896;20.868;2022-07-24T04:36:19;19.25;;;6.20;;
28960;SDS011;16068;42.896;20.868;2022-07-24T04:39:05;18.08;;;6.95;;
28960;SDS011;16068;42.896;20.868;2022-07-24T04:41:53;15.18;;;5.78;;
28960;SDS011;16068;42.896;20.868;2022-07-24T04:44:38;15.85;;;6.78;;
28960;SDS011;16068;42.896;20.868;2022-07-24T04:47:25;12.63;;;5.88;;
28960;SDS011;16068;42.896;20.868;2022-07-24T04:50:10;19.30;;;6.18;;
28960;SDS011;16068;42.896;20.868;2022-07-24T04:52:59;20.25;;;7.15;;
28960;SDS011;16068;42.896;20.868;2022-07-24T04:55:45;19.20;;;6.05;;
28960;SDS011;16068;42.896;20.868;2022-07-24T04:58:34;16.63;;;6.22;;
28960;SDS011;16068;42.896;20.868;2022-07-24T05:01:21;46.63;;;11.02;;
28960;SDS011;16068;42.896;20.868;2022-07-24T05:04:08;16.90;;;6.43;;
28960;SDS011;16068;42.896;20.868;2022-07-24T05:06:54;19.35;;;6.65;;
28960;SDS011;16068;42.896;20.868;2022-07-24T05:09:40;25.30;;;7.03;;
28960;SDS011;16068;42.896;20.868;2022-07-24T05:12:26;23.98;;;6.72;;
28960;SDS011;16068;42.896;20.868;2022-07-24T05:15:12;16.40;;;6.60;;
28960;SDS011;16068;42.896;20.868;2022-07-24T05:17:58;23.92;;;7.28;;
28960;SDS011;16068;42.896;20.868;2022-07-24T05:20:44;11.98;;;6.65;;
28960;SDS011;16068;42.896;20.868;2022-07-24T05:23:30;13.60;;;6.68;;
28960;SDS011;16068;42.896;20.868;2022-07-24T05:26:16;19.13;;;6.43;;
28960;SDS011;16068;42.896;20.868;2022-07-24T05:29:03;22.73;;;7.10;;
28960;SDS011;16068;42.896;20.868;2022-07-24T05:31:52;28.27;;;7.75;;
28960;SDS011;16068;42.896;20.868;2022-07-24T05:34:40;21.80;;;8.25;;
28960;SDS011;16068;42.896;20.868;2022-07-24T05:37:26;25.73;;;6.30;;
28960;SDS011;16068;42.896;20.868;2022-07-24T05:40:12;14.38;;;7.10;;
28960;SDS011;16068;42.896;20.868;2022-07-24T05:42:58;20.15;;;6.75;;
28960;SDS011;16068;42.896;20.868;2022-07-24T05:45:44;21.35;;;6.93;;
28960;SDS011;16068;42.896;20.868;2022-07-24T05:48:30;19.70;;;6.88;;
28960;SDS011;16068;42.896;20.868;2022-07-24T05:51:16;17.20;;;6.60;;
28960;SDS011;16068;42.896;20.868;2022-07-24T05:54:02;19.70;;;6.80;;
28960;SDS011;16068;42.896;20.868;2022-07-24T05:56:48;24.77;;;7.15;;
28960;SDS011;16068;42.896;20.868;2022-07-24T05:59:34;17.52;;;6.47;;
28960;SDS011;16068;42.896;20.868;2022-07-24T06:02:21;16.52;;;6.75;;
28960;SDS011;16068;42.896;20.868;2022-07-24T06:05:08;15.35;;;7.15;;
28960;SDS011;16068;42.896;20.868;2022-07-24T06:07:54;13.05;;;6.68;;
28960;SDS011;16068;42.896;20.868;2022-07-24T06:10:40;13.07;;;7.32;;
28960;SDS011;16068;42.896;20.868;2022-07-24T06:13:25;15.10;;;6.72;;
28960;SDS011;16068;42.896;20.868;2022-07-24T06:16:12;12.63;;;6.47;;
28960;SDS011;16068;42.896;20.868;2022-07-24T06:18:58;16.63;;;6.82;;
28960;SDS011;16068;42.896;20.868;2022-07-24T06:21:44;16.40;;;6.80;;
28960;SDS011;16068;42.896;20.868;2022-07-24T06:24:30;15.05;;;6.68;;
28960;SDS011;16068;42.896;20.868;2022-07-24T06:27:16;16.95;;;6.80;;
28960;SDS011;16068;42.896;20.868;2022-07-24T06:30:02;13.98;;;6.20;;
28960;SDS011;16068;42.896;20.868;2022-07-24T06:32:49;12.55;;;6.60;;
28960;SDS011;16068;42.896;20.868;2022-07-24T06:35:35;13.55;;;6.50;;
28960;SDS011;16068;42.896;20.868;2022-07-24T06:38:21;17.45;;;6.50;;
28960;SDS011;16068;42.896;20.868;2022-07-24T06:41:07;12.50;;;5.75;;
28960;SDS011;16068;42.896;20.868;2022-07-24T06:43:54;19.67;;;6.90;;
28960;SDS011;16068;42.896;20.868;2022-07-24T06:46:43;15.05;;;6.65;;
28960;SDS011;16068;42.896;20.868;2022-07-24T06:49:30;15.82;;;6.80;;
28960;SDS011;16068;42.896;20.868;2022-07-24T06:52:15;16.73;;;6.13;;
28960;SDS011;16068;42.896;20.868;2022-07-24T06:55:01;18.70;;;5.85;;
28960;SDS011;16068;42.896;20.868;2022-07-24T06:57:48;16.08;;;6.47;;
28960;SDS011;16068;42.896;20.868;2022-07-24T07:00:34;17.30;;;6.10;;
28960;SDS011;16068;42.896;20.868;2022-07-24T07:03:20;15.63;;;5.97;;
28960;SDS011;16068;42.896;20.868;2022-07-24T07:06:06;18.88;;;6.13;;
28960;SDS011;16068;42.896;20.868;2022-07-24T07:08:51;19.85;;;6.35;;
28960;SDS011;16068;42.896;20.868;2022-07-24T07:11:37;19.65;;;6.10;;
28960;SDS011;16068;42.896;20.868;2022-07-24T07:14:23;14.98;;;6.50;;
28960;SDS011;16068;42.896;20.868;2022-07-24T07:17:09;14.30;;;5.82;;
28960;SDS011;16068;42.896;20.868;2022-07-24T07:19:56;15.98;;;6.25;;
28960;SDS011;16068;42.896;20.868;2022-07-24T07:22:42;19.50;;;6.35;;
28960;SDS011;16068;42.896;20.868;2022-07-24T07:25:28;22.73;;;6.07;;
28960;SDS011;16068;42.896;20.868;2022-07-24T07:28:15;24.38;;;7.03;;
28960;SDS011;16068;42.896;20.868;2022-07-24T07:31:01;17.10;;;6.13;;
28960;SDS011;16068;42.896;20.868;2022-07-24T07:33:47;16.33;;;5.93;;
28960;SDS011;16068;42.896;20.868;2022-07-24T07:36:33;13.88;;;5.82;;
28960;SDS011;16068;42.896;20.868;2022-07-24T07:39:20;15.40;;;6.50;;
28960;SDS011;16068;42.896;20.868;2022-07-24T07:42:06;19.83;;;6.82;;
28960;SDS011;16068;42.896;20.868;2022-07-24T07:44:52;20.42;;;6.60;;
28960;SDS011;16068;42.896;20.868;2022-07-24T07:47:38;11.90;;;6.47;;
28960;SDS011;16068;42.896;20.868;2022-07-24T07:50:25;14.48;;;6.45;;
28960;SDS011;16068;42.896;20.868;2022-07-24T07:53:11;17.13;;;7.07;;
28960;SDS011;16068;42.896;20.868;2022-07-24T07:55:58;12.38;;;6.25;;
28960;SDS011;16068;42.896;20.868;2022-07-24T07:58:44;15.75;;;6.95;;
28960;SDS011;16068;42.896;20.868;2022-07-24T08:01:30;12.50;;;6.10;;
28960;SDS011;16068;42.896;20.868;2022-07-24T08:04:16;17.80;;;6.53;;
28960;SDS011;16068;42.896;20.868;2022-07-24T08:07:02;17.63;;;6.82;;
28960;SDS011;16068;42.896;20.868;2022-07-24T08:09:51;11.35;;;6.68;;
28960;SDS011;16068;42.896;20.868;2022-07-24T08:12:37;16.33;;;6.90;;
28960;SDS011;16068;42.896;20.868;2022-07-24T08:15:24;11.85;;;6.55;;
28960;SDS011;16068;42.896;20.868;2022-07-24T08:18:10;10.85;;;5.97;;
28960;SDS011;16068;42.896;20.868;2022-07-24T08:20:56;13.15;;;6.85;;
28960;SDS011;16068;42.896;20.868;2022-07-24T08:23:42;14.70;;;6.45;;
28960;SDS011;16068;42.896;20.868;2022-07-24T08:26:27;9.60;;;6.05;;
28960;SDS011;16068;42.896;20.868;2022-07-24T08:29:16;14.80;;;5.82;;
28960;SDS011;16068;42.896;20.868;2022-07-24T08:32:03;30.35;;;8.25;;
28960;SDS011;16068;42.896;20.868;2022-07-24T08:34:52;22.88;;;8.23;;
28960;SDS011;16068;42.896;20.868;2022-07-24T08:37:41;18.58;;;6.95;;
28960;SDS011;16068;42.896;20.868;2022-07-24T08:40:30;14.15;;;5.78;;
28960;SDS011;16068;42.896;20.868;2022-07-24T08:43:18;16.60;;;7.13;;
28960;SDS011;16068;42.896;20.868;2022-07-24T08:46:04;20.23;;;7.50;;
28960;SDS011;16068;42.896;20.868;2022-07-24T08:48:54;34.92;;;7.63;;
28960;SDS011;16068;42.896;20.868;2022-07-24T08:51:41;23.25;;;7.20;;
28960;SDS011;16068;42.896;20.868;2022-07-24T08:54:28;19.20;;;11.00;;
28960;SDS011;16068;42.896;20.868;2022-07-24T08:57:15;26.30;;;9.85;;
28960;SDS011;16068;42.896;20.868;2022-07-24T09:00:02;27.48;;;19.40;;
28960;SDS011;16068;42.896;20.868;2022-07-24T09:02:49;18.48;;;7.40;;
28960;SDS011;16068;42.896;20.868;2022-07-24T09:08:56;27.25;;;6.88;;
28960;SDS011;16068;42.896;20.868;2022-07-24T09:12:05;22.38;;;6.43;;
28960;SDS011;16068;42.896;20.868;2022-07-24T09:15:02;15.15;;;5.55;;
28960;SDS011;16068;42.896;20.868;2022-07-24T09:17:57;16.55;;;5.95;;
28960;SDS011;16068;42.896;20.868;2022-07-24T09:20:44;12.45;;;5.97;;
28960;SDS011;16068;42.896;20.868;2022-07-24T09:23:30;10.77;;;5.97;;
28960;SDS011;16068;42.896;20.868;2022-07-24T09:26:16;19.02;;;12.95;;
28960;SDS011;16068;42.896;20.868;2022-07-24T09:29:02;16.27;;;10.63;;
28960;SDS011;16068;42.896;20.868;2022-07-24T09:31:59;12.25;;;6.50;;
28960;SDS011;16068;42.896;20.868;2022-07-24T09:34:50;15.02;;;5.80;;
28960;SDS011;16068;42.896;20.868;2022-07-24T09:37:37;13.07;;;5.78;;
28960;SDS011;16068;42.896;20.868;2022-07-24T09:40:27;11.90;;;5.25;;
28960;SDS011;16068;42.896;20.868;2022-07-24T09:43:20;24.33;;;5.75;;
28960;SDS011;16068;42.896;20.868;2022-07-24T09:46:19;15.27;;;5.40;;
28960;SDS011;16068;42.896;20.868;2022-07-24T09:49:09;11.88;;;5.45;;
28960;SDS011;16068;42.896;20.868;2022-07-24T09:52:06;16.90;;;5.07;;
28960;SDS011;16068;42.896;20.868;2022-07-24T09:54:55;13.55;;;5.38;;
28960;SDS011;16068;42.896;20.868;2022-07-24T09:57:42;11.35;;;5.63;;
28960;SDS011;16068;42.896;20.868;2022-07-24T10:00:28;13.05;;;6.15;;
28960;SDS011;16068;42.896;20.868;2022-07-24T10:03:14;14.20;;;6.80;;
28960;SDS011;16068;42.896;20.868;2022-07-24T10:06:05;20.13;;;11.88;;
28960;SDS011;16068;42.896;20.868;2022-07-24T10:08:54;16.73;;;12.07;;
28960;SDS011;16068;42.896;20.868;2022-07-24T10:11:40;14.70;;;8.27;;
28960;SDS011;16068;42.896;20.868;2022-07-24T10:14:30;14.13;;;7.30;;
28960;SDS011;16068;42.896;20.868;2022-07-24T10:17:16;20.38;;;6.82;;
28960;SDS011;16068;42.896;20.868;2022-07-24T10:20:11;19.88;;;6.82;;
28960;SDS011;16068;42.896;20.868;2022-07-24T10:23:24;13.80;;;6.45;;
28960;SDS011;16068;42.896;20.868;2022-07-24T10:26:16;17.05;;;6.93;;
28960;SDS011;16068;42.896;20.868;2022-07-24T10:29:34;22.27;;;6.72;;
28960;SDS011;16068;42.896;20.868;2022-07-24T10:32:22;14.25;;;6.97;;
28960;SDS011;16068;42.896;20.868;2022-07-24T10:41:22;13.52;;;5.75;;
28960;SDS011;16068;42.896;20.868;2022-07-24T10:44:12;42.03;;;30.30;;
28960;SDS011;16068;42.896;20.868;2022-07-24T10:47:01;12.60;;;6.45;;
28960;SDS011;16068;42.896;20.868;2022-07-24T10:49:52;12.70;;;6.50;;
28960;SDS011;16068;42.896;20.868;2022-07-24T10:52:40;13.43;;;6.13;;
28960;SDS011;16068;42.896;20.868;2022-07-24T10:55:29;8.85;;;5.70;;
28960;SDS011;16068;42.896;20.868;2022-07-24T10:58:21;13.13;;;7.15;;
28960;SDS011;16068;42.896;20.868;2022-07-24T11:01:26;19.27;;;6.15;;
28960;SDS011;16068;42.896;20.868;2022-07-24T11:04:32;14.80;;;6.80;;
28960;SDS011;16068;42.896;20.868;2022-07-24T11:07:18;15.75;;;6.47;;
28960;SDS011;16068;42.896;20.868;2022-07-24T11:10:06;13.50;;;6.53;;
28960;SDS011;16068;42.896;20.868;2022-07-24T11:12:53;12.82;;;6.13;;
28960;SDS011;16068;42.896;20.868;2022-07-24T11:21:48;11.88;;;6.60;;
28960;SDS011;16068;42.896;20.868;2022-07-24T11:25:06;15.63;;;7.18;;
28960;SDS011;16068;42.896;20.868;2022-07-24T11:27:58;16.55;;;10.48;;
28960;SDS011;16068;42.896;20.868;2022-07-24T11:30:59;18.00;;;9.00;;
28960;SDS011;16068;42.896;20.868;2022-07-24T11:33:46;16.20;;;9.15;;
28960;SDS011;16068;42.896;20.868;2022-07-24T11:36:32;20.70;;;7.80;;
28960;SDS011;16068;42.896;20.868;2022-07-24T11:39:20;13.07;;;7.53;;
28960;SDS011;16068;42.896;20.868;2022-07-24T11:42:12;17.98;;;6.85;;
28960;SDS011;16068;42.896;20.868;2022-07-24T11:45:00;13.77;;;7.32;;
28960;SDS011;16068;42.896;20.868;2022-07-24T11:47:46;14.90;;;8.30;;
28960;SDS011;16068;42.896;20.868;2022-07-24T11:50:32;19.55;;;7.57;;
28960;SDS011;16068;42.896;20.868;2022-07-24T11:53:20;16.50;;;6.80;;
28960;SDS011;16068;42.896;20.868;2022-07-24T11:56:13;15.32;;;6.75;;
28960;SDS011;16068;42.896;20.868;2022-07-24T11:59:02;15.63;;;9.20;;
28960;SDS011;16068;42.896;20.868;2022-07-24T12:01:48;16.05;;;7.72;;
28960;SDS011;16068;42.896;20.868;2022-07-24T12:04:34;11.55;;;7.40;;
28960;SDS011;16068;42.896;20.868;2022-07-24T12:07:24;18.00;;;8.65;;
28960;SDS011;16068;42.896;20.868;2022-07-24T12:10:12;22.27;;;8.43;;
28960;SDS011;16068;42.896;20.868;2022-07-24T12:13:06;19.42;;;8.38;;
28960;SDS011;16068;42.896;20.868;2022-07-24T12:15:52;18.02;;;7.60;;
28960;SDS011;16068;42.896;20.868;2022-07-24T12:18:38;17.52;;;8.15;;
28960;SDS011;16068;42.896;20.868;2022-07-24T12:21:23;16.05;;;7.68;;
28960;SDS011;16068;42.896;20.868;2022-07-24T12:24:10;17.58;;;7.88;;
28960;SDS011;16068;42.896;20.868;2022-07-24T12:26:57;12.63;;;7.57;;
28960;SDS011;16068;42.896;20.868;2022-07-24T12:29:44;15.55;;;8.02;;
28960;SDS011;16068;42.896;20.868;2022-07-24T12:32:30;15.82;;;8.07;;
28960;SDS011;16068;42.896;20.868;2022-07-24T12:35:16;19.25;;;7.70;;
28960;SDS011;16068;42.896;20.868;2022-07-24T12:38:10;15.02;;;7.22;;
28960;SDS011;16068;42.896;20.868;2022-07-24T12:41:06;18.98;;;6.82;;
28960;SDS011;16068;42.896;20.868;2022-07-24T12:46:50;15.80;;;6.65;;
28960;SDS011;16068;42.896;20.868;2022-07-24T12:49:40;18.23;;;8.98;;
28960;SDS011;16068;42.896;20.868;2022-07-24T12:52:29;22.27;;;8.27;;
28960;SDS011;16068;42.896;20.868;2022-07-24T12:55:18;20.02;;;7.13;;
28960;SDS011;16068;42.896;20.868;2022-07-24T12:58:05;42.22;;;13.65;;
28960;SDS011;16068;42.896;20.868;2022-07-24T15:46:24;26.13;;;18.77;;
28960;SDS011;16068;42.896;20.868;2022-07-24T15:49:10;22.65;;;18.30;;
28960;SDS011;16068;42.896;20.868;2022-07-24T15:51:56;27.30;;;18.45;;
28960;SDS011;16068;42.896;20.868;2022-07-24T15:54:42;25.30;;;17.70;;
28960;SDS011;16068;42.896;20.868;2022-07-24T15:57:28;30.02;;;18.17;;
28960;SDS011;16068;42.896;20.868;2022-07-24T16:00:14;24.63;;;17.02;;
28960;SDS011;16068;42.896;20.868;2022-07-24T16:03:01;25.05;;;17.63;;
28960;SDS011;16068;42.896;20.868;2022-07-24T16:05:47;21.25;;;16.17;;
28960;SDS011;16068;42.896;20.868;2022-07-24T16:08:33;21.95;;;18.08;;
28960;SDS011;16068;42.896;20.868;2022-07-24T16:11:20;25.45;;;19.20;;
28960;SDS011;16068;42.896;20.868;2022-07-24T16:14:05;23.65;;;17.70;;
28960;SDS011;16068;42.896;20.868;2022-07-24T16:16:52;21.92;;;18.15;;
28960;SDS011;16068;42.896;20.868;2022-07-24T16:19:39;21.42;;;17.40;;
28960;SDS011;16068;42.896;20.868;2022-07-24T16:22:26;30.27;;;19.90;;
28960;SDS011;16068;42.896;20.868;2022-07-24T16:25:12;28.00;;;18.88;;
28960;SDS011;16068;42.896;20.868;2022-07-24T16:27:58;17.40;;;15.15;;
28960;SDS011;16068;42.896;20.868;2022-07-24T16:30:44;39.47;;;26.33;;
28960;SDS011;16068;42.896;20.868;2022-07-24T16:33:30;31.65;;;19.60;;
28960;SDS011;16068;42.896;20.868;2022-07-24T16:36:27;30.52;;;18.23;;
28960;SDS011;16068;42.896;20.868;2022-07-24T16:39:13;28.65;;;17.17;;
28960;SDS011;16068;42.896;20.868;2022-07-24T16:42:20;30.13;;;17.35;;
28960;SDS011;16068;42.896;20.868;2022-07-24T16:45:06;28.15;;;18.50;;
28960;SDS011;16068;42.896;20.868;2022-07-24T16:48:13;31.92;;;18.95;;
28960;SDS011;16068;42.896;20.868;2022-07-24T16:50:59;27.20;;;17.92;;
28960;SDS011;16068;42.896;20.868;2022-07-24T16:54:00;24.10;;;16.00;;
28960;SDS011;16068;42.896;20.868;2022-07-24T16:56:47;28.77;;;15.13;;
28960;SDS011;16068;42.896;20.868;2022-07-24T16:59:32;24.30;;;14.02;;
28960;SDS011;16068;42.896;20.868;2022-07-24T17:02:18;22.40;;;13.95;;
28960;SDS011;16068;42.896;20.868;2022-07-24T17:05:05;24.58;;;15.02;;
28960;SDS011;16068;42.896;20.868;2022-07-24T17:07:53;19.88;;;14.48;;
28960;SDS011;16068;42.896;20.868;2022-07-24T17:10:39;21.67;;;14.57;;
28960;SDS011;16068;42.896;20.868;2022-07-24T17:13:31;21.60;;;14.52;;
28960;SDS011;16068;42.896;20.868;2022-07-24T17:16:17;27.75;;;15.80;;
28960;SDS011;16068;42.896;20.868;2022-07-24T17:19:04;17.05;;;15.00;;
28960;SDS011;16068;42.896;20.868;2022-07-24T17:22:00;18.02;;;12.60;;
28960;SDS011;16068;42.896;20.868;2022-07-24T17:25:09;17.58;;;11.88;;
28960;SDS011;16068;42.896;20.868;2022-07-24T17:30:58;12.02;;;9.40;;
28960;SDS011;16068;42.896;20.868;2022-07-24T17:33:46;15.23;;;9.15;;
28960;SDS011;16068;42.896;20.868;2022-07-24T17:36:32;18.20;;;11.55;;
28960;SDS011;16068;42.896;20.868;2022-07-24T17:39:19;15.50;;;10.95;;
28960;SDS011;16068;42.896;20.868;2022-07-24T17:42:05;28.38;;;14.07;;
28960;SDS011;16068;42.896;20.868;2022-07-24T17:44:51;17.77;;;12.77;;
28960;SDS011;16068;42.896;20.868;2022-07-24T17:47:38;13.20;;;10.60;;
28960;SDS011;16068;42.896;20.868;2022-07-24T17:50:24;14.40;;;10.15;;
28960;SDS011;16068;42.896;20.868;2022-07-24T17:53:10;12.93;;;9.65;;
28960;SDS011;16068;42.896;20.868;2022-07-24T17:55:57;17.02;;;9.43;;
28960;SDS011;16068;42.896;20.868;2022-07-24T17:58:43;16.50;;;9.82;;
28960;SDS011;16068;42.896;20.868;2022-07-24T18:01:29;15.45;;;10.35;;
28960;SDS011;16068;42.896;20.868;2022-07-24T18:04:15;14.85;;;12.10;;
28960;SDS011;16068;42.896;20.868;2022-07-24T18:07:01;14.80;;;10.20;;
28960;SDS011;16068;42.896;20.868;2022-07-24T18:09:47;19.67;;;12.75;;
28960;SDS011;16068;42.896;20.868;2022-07-24T18:12:33;18.25;;;14.98;;
28960;SDS011;16068;42.896;20.868;2022-07-24T18:15:20;15.68;;;10.40;;
28960;SDS011;16068;42.896;20.868;2022-07-24T18:18:06;15.95;;;9.15;;
28960;SDS011;16068;42.896;20.868;2022-07-24T18:20:52;14.63;;;9.80;;
28960;SDS011;16068;42.896;20.868;2022-07-24T18:23:38;13.68;;;9.75;;
28960;SDS011;16068;42.896;20.868;2022-07-24T18:26:24;12.52;;;8.35;;
28960;SDS011;16068;42.896;20.868;2022-07-24T18:29:10;19.60;;;8.82;;
28960;SDS011;16068;42.896;20.868;2022-07-24T18:31:56;16.70;;;9.00;;
28960;SDS011;16068;42.896;20.868;2022-07-24T18:34:42;11.05;;;7.55;;
28960;SDS011;16068;42.896;20.868;2022-07-24T18:37:28;16.55;;;7.82;;
28960;SDS011;16068;42.896;20.868;2022-07-24T18:40:14;11.75;;;7.45;;
28960;SDS011;16068;42.896;20.868;2022-07-24T18:43:00;11.57;;;8.75;;
28960;SDS011;16068;42.896;20.868;2022-07-24T18:45:46;11.40;;;9.88;;
28960;SDS011;16068;42.896;20.868;2022-07-24T18:48:33;15.98;;;9.88;;
28960;SDS011;16068;42.896;20.868;2022-07-24T18:51:19;11.63;;;8.60;;
28960;SDS011;16068;42.896;20.868;2022-07-24T18:54:09;13.52;;;8.75;;
28960;SDS011;16068;42.896;20.868;2022-07-24T18:56:55;10.48;;;7.70;;
28960;SDS011;16068;42.896;20.868;2022-07-24T18:59:41;9.05;;;8.15;;
28960;SDS011;16068;42.896;20.868;2022-07-24T19:02:27;10.60;;;9.18;;
28960;SDS011;16068;42.896;20.868;2022-07-24T19:05:14;11.10;;;9.25;;
28960;SDS011;16068;42.896;20.868;2022-07-24T19:08:00;11.90;;;10.68;;
28960;SDS011;16068;42.896;20.868;2022-07-24T19:10:48;11.63;;;9.98;;
28960;SDS011;16068;42.896;20.868;2022-07-24T19:13:34;13.25;;;9.50;;
28960;SDS011;16068;42.896;20.868;2022-07-24T19:16:20;11.63;;;9.60;;
28960;SDS011;16068;42.896;20.868;2022-07-24T19:19:06;10.50;;;9.32;;
28960;SDS011;16068;42.896;20.868;2022-07-24T19:21:52;12.30;;;9.65;;
28960;SDS011;16068;42.896;20.868;2022-07-24T19:24:38;20.52;;;11.57;;